Datum - Zeit
Temperatur 2mTemperatur 5cmTaupunktFeuchteSolar Wind aus Richtung WindböenLuftdruck (QFF)RegenRegenstärkeTrend
04.06.2023 - 00.00Uhr18.8 °C13 °C67.7 %1.2 km/hNordosten3.2 km/h1018.7 hPa0.0 mm0.0 mm/hwechselhaft
04.06.2023 - 00.05Uhr18.4 °C13 °C69.1 %3.1 km/hNordosten4.7 km/h1018.7 hPa0.0 mm0.0 mm/hwechselhaft
04.06.2023 - 00.10Uhr18.0 °C12 °C70.2 %3.7 km/hOst-NO6.5 km/h1018.7 hPa0.0 mm0.0 mm/hwechselhaft
04.06.2023 - 00.15Uhr17.7 °C12 °C71.0 %4.3 km/hOsten6.5 km/h1018.8 hPa0.0 mm0.0 mm/hwechselhaft
04.06.2023 - 00.20Uhr17.4 °C12 °C71.5 %4.4 km/hOst-SO9.7 km/h1018.7 hPa0.0 mm0.0 mm/hwechselhaft
04.06.2023 - 00.25Uhr17.3 °C12 °C72.0 %2.0 km/hOst-SO4.7 km/h1018.7 hPa0.0 mm0.0 mm/hwechselhaft
04.06.2023 - 00.30Uhr17.2 °C12 °C72.5 %1.6 km/hOst-SO4.7 km/h1018.7 hPa0.0 mm0.0 mm/hwechselhaft
04.06.2023 - 00.35Uhr17.1 °C12 °C73.0 %3.3 km/hOst-NO7.9 km/h1018.7 hPa0.0 mm0.0 mm/hwechselhaft
04.06.2023 - 00.40Uhr17.1 °C12 °C73.0 %3.5 km/hOsten6.5 km/h1018.7 hPa0.0 mm0.0 mm/hwechselhaft
04.06.2023 - 00.45Uhr17.1 °C12 °C73.0 %4.3 km/hOsten9.7 km/h1018.7 hPa0.0 mm0.0 mm/hwechselhaft
04.06.2023 - 00.50Uhr16.9 °C12 °C73.0 %3.3 km/hOst-SO6.5 km/h1018.7 hPa0.0 mm0.0 mm/hwechselhaft
04.06.2023 - 00.55Uhr16.8 °C12 °C73.4 %3.2 km/hOst-SO6.5 km/h1018.7 hPa0.0 mm0.0 mm/hwechselhaft
04.06.2023 - 01.00Uhr16.7 °C12 °C74.0 %3.9 km/hOst-SO6.5 km/h1018.7 hPa0.0 mm0.0 mm/hwechselhaft
04.06.2023 - 01.05Uhr16.6 °C12 °C74.0 %3.8 km/hOst-SO6.5 km/h1018.7 hPa0.0 mm0.0 mm/hwechselhaft
04.06.2023 - 01.10Uhr16.4 °C12 °C74.0 %4.3 km/hOsten9.7 km/h1018.7 hPa0.0 mm0.0 mm/hwechselhaft
04.06.2023 - 01.15Uhr16.5 °C12 °C74.0 %3.9 km/hOsten6.5 km/h1018.7 hPa0.0 mm0.0 mm/hwechselhaft
04.06.2023 - 01.20Uhr16.5 °C12 °C74.0 %3.3 km/hOsten6.5 km/h1018.7 hPa0.0 mm0.0 mm/hwechselhaft
04.06.2023 - 01.25Uhr16.4 °C12 °C74.0 %2.7 km/hOsten4.7 km/h1018.8 hPa0.0 mm0.0 mm/hwechselhaft
04.06.2023 - 01.30Uhr16.4 °C12 °C75.0 %2.2 km/hOsten4.7 km/h1018.9 hPa0.0 mm0.0 mm/hwechselhaft
04.06.2023 - 01.35Uhr16.2 °C12 °C75.4 %2.0 km/hOsten4.7 km/h1018.9 hPa0.0 mm0.0 mm/hwechselhaft
04.06.2023 - 01.40Uhr16.0 °C12 °C76.0 %3.2 km/hOsten6.5 km/h1018.8 hPa0.0 mm0.0 mm/hwechselhaft
04.06.2023 - 01.45Uhr15.7 °C12 °C76.9 %2.5 km/hOsten4.7 km/h1018.8 hPa0.0 mm0.0 mm/hwechselhaft
04.06.2023 - 01.50Uhr15.4 °C12 °C78.0 %2.8 km/hOst-NO7.9 km/h1018.7 hPa0.0 mm0.0 mm/hwechselhaft
04.06.2023 - 01.55Uhr15.2 °C12 °C78.5 %0.5 km/hOst-NO3.2 km/h1018.7 hPa0.0 mm0.0 mm/hwechselhaft
04.06.2023 - 02.00Uhr14.9 °C11 °C79.6 %2.6 km/hOst-NO4.7 km/h1018.8 hPa0.0 mm0.0 mm/hwechselhaft
04.06.2023 - 02.05Uhr14.7 °C11 °C80.2 %2.7 km/hOst-NO4.7 km/h1018.8 hPa0.0 mm0.0 mm/hwechselhaft
04.06.2023 - 02.10Uhr14.5 °C11 °C80.8 %2.1 km/hOst-NO4.7 km/h1018.8 hPa0.0 mm0.0 mm/hwechselhaft
04.06.2023 - 02.15Uhr14.5 °C11 °C80.6 %1.4 km/hOst-NO3.2 km/h1018.8 hPa0.0 mm0.0 mm/hwechselhaft
04.06.2023 - 02.20Uhr14.5 °C11 °C80.5 %1.3 km/hOst-NO4.7 km/h1018.8 hPa0.0 mm0.0 mm/hwechselhaft
04.06.2023 - 02.25Uhr14.7 °C11 °C79.3 %0.5 km/hOst-NO4.7 km/h1018.8 hPa0.0 mm0.0 mm/hwechselhaft
04.06.2023 - 02.30Uhr14.8 °C11 °C79.7 %0.1 km/hOst-NO1.4 km/h1018.8 hPa0.0 mm0.0 mm/hwechselhaft
04.06.2023 - 02.35Uhr14.6 °C11 °C80.0 %0.8 km/hOst-NO3.2 km/h1018.7 hPa0.0 mm0.0 mm/hwechselhaft
04.06.2023 - 02.40Uhr14.6 °C11 °C80.0 %0.0 km/hOst-NO0.0 km/h1018.8 hPa0.0 mm0.0 mm/hwechselhaft
04.06.2023 - 02.45Uhr14.6 °C11 °C80.0 %0.2 km/hOst-NO3.2 km/h1018.8 hPa0.0 mm0.0 mm/hwechselhaft
04.06.2023 - 02.50Uhr14.7 °C11 °C80.0 %2.0 km/hOst-NO4.7 km/h1018.9 hPa0.0 mm0.0 mm/hwechselhaft
04.06.2023 - 02.55Uhr14.8 °C11 °C80.0 %2.3 km/hOst-NO4.7 km/h1018.8 hPa0.0 mm0.0 mm/hwechselhaft
04.06.2023 - 03.00Uhr14.8 °C11 °C79.7 %2.1 km/hOst-NO4.7 km/h1018.8 hPa0.0 mm0.0 mm/hwechselhaft
04.06.2023 - 03.05Uhr14.8 °C11 °C79.2 %2.4 km/hOst-NO4.7 km/h1018.8 hPa0.0 mm0.0 mm/hwechselhaft
04.06.2023 - 03.10Uhr14.9 °C11 °C79.0 %0.7 km/hOst-NO3.2 km/h1018.8 hPa0.0 mm0.0 mm/hwechselhaft
04.06.2023 - 03.15Uhr15.1 °C11 °C79.0 %0.4 km/hOst-NO1.4 km/h1018.8 hPa0.0 mm0.0 mm/hwechselhaft
04.06.2023 - 03.20Uhr15.0 °C11 °C78.1 %0.3 km/hOst-NO3.2 km/h1018.8 hPa0.0 mm0.0 mm/hwechselhaft
04.06.2023 - 03.25Uhr15.2 °C11 °C78.0 %0.7 km/hOst-NO4.7 km/h1018.8 hPa0.0 mm0.0 mm/hwechselhaft
04.06.2023 - 03.30Uhr15.2 °C11 °C78.0 %1.0 km/hOst-NO3.2 km/h1018.8 hPa0.0 mm0.0 mm/hwechselhaft
04.06.2023 - 03.35Uhr15.1 °C11 °C77.5 %1.1 km/hOst-NO4.7 km/h1018.8 hPa0.0 mm0.0 mm/hwechselhaft
04.06.2023 - 03.40Uhr15.1 °C11 °C77.7 %0.4 km/hOst-NO3.2 km/h1018.8 hPa0.0 mm0.0 mm/hwechselhaft
04.06.2023 - 03.45Uhr15.1 °C11 °C77.8 %0.8 km/hOst-NO3.2 km/h1018.8 hPa0.0 mm0.0 mm/hwechselhaft
04.06.2023 - 03.50Uhr15.0 °C11 °C78.0 %0.4 km/hOst-NO3.2 km/h1018.8 hPa0.0 mm0.0 mm/hwechselhaft
04.06.2023 - 03.55Uhr14.8 °C11 °C78.8 %0.3 km/hOst-NO3.2 km/h1018.9 hPa0.0 mm0.0 mm/hwechselhaft
04.06.2023 - 04.00Uhr14.5 °C11 °C79.1 %0.0 km/hOst-NO0.0 km/h1018.9 hPa0.0 mm0.0 mm/hwechselhaft
04.06.2023 - 04.05Uhr14.3 °C11 °C80.0 %0.0 km/hOst-NO0.0 km/h1018.9 hPa0.0 mm0.0 mm/hwechselhaft
04.06.2023 - 04.10Uhr14.2 °C11 °C80.0 %0.0 km/hOst-NO0.0 km/h1018.9 hPa0.0 mm0.0 mm/hwechselhaft
04.06.2023 - 04.15Uhr14.3 °C11 °C80.0 %0.5 km/hOst-NO3.2 km/h1019.0 hPa0.0 mm0.0 mm/hwechselhaft
04.06.2023 - 04.20Uhr14.3 °C11 °C80.2 %1.1 km/hOst-NO3.2 km/h1019.0 hPa0.0 mm0.0 mm/hwechselhaft
04.06.2023 - 04.25Uhr14.2 °C11 °C81.0 %0.3 km/hOst-NO1.4 km/h1019.0 hPa0.0 mm0.0 mm/hwechselhaft
04.06.2023 - 04.30Uhr14.1 °C11 °C81.1 %0.0 km/hOst-NO0.0 km/h1019.0 hPa0.0 mm0.0 mm/hwechselhaft
04.06.2023 - 04.35Uhr13.9 °C11 °C82.0 %0.0 km/hOst-NO0.0 km/h1019.0 hPa0.0 mm0.0 mm/hwechselhaft
04.06.2023 - 04.40Uhr13.9 °C11 °C81.4 %2.5 km/hOst-NO4.7 km/h1019.1 hPa0.0 mm0.0 mm/hwechselhaft
04.06.2023 - 04.45Uhr14.2 °C11 °C81.0 %3.5 km/hOst-NO4.7 km/h1019.0 hPa0.0 mm0.0 mm/hwechselhaft
04.06.2023 - 04.50Uhr14.2 °C11 °C81.0 %4.5 km/hOst-NO6.5 km/h1019.0 hPa0.0 mm0.0 mm/hwechselhaft
04.06.2023 - 04.55Uhr14.3 °C11 °C81.0 %3.8 km/hOst-NO6.5 km/h1019.0 hPa0.0 mm0.0 mm/hwechselhaft
04.06.2023 - 05.00Uhr14.2 °C11 °C81.0 %3.6 km/hOst-NO4.7 km/h1019.1 hPa0.0 mm0.0 mm/hwechselhaft
04.06.2023 - 05.05Uhr13.8 °C11 °C81.5 %4.0 km/hOst-NO4.7 km/h1019.0 hPa0.0 mm0.0 mm/hwechselhaft
04.06.2023 - 05.10Uhr13.5 °C10 °C82.1 %4.4 km/hOst-NO6.5 km/h1019.1 hPa0.0 mm0.0 mm/hwechselhaft
04.06.2023 - 05.15Uhr13.2 °C10 °C83.0 %3.9 km/hOst-NO6.5 km/h1019.1 hPa0.0 mm0.0 mm/hwechselhaft
04.06.2023 - 05.20Uhr13.1 °C10 °C83.0 %3.6 km/hOst-NO4.7 km/h1019.2 hPa0.0 mm0.0 mm/hwechselhaft
04.06.2023 - 05.25Uhr13.1 °C10 °C83.0 %3.3 km/hOst-NO4.7 km/h1019.2 hPa0.0 mm0.0 mm/hwechselhaft
04.06.2023 - 05.30Uhr13.1 °C10 °C83.0 %4.2 km/hOst-NO6.5 km/h1019.3 hPa0.0 mm0.0 mm/hwechselhaft
04.06.2023 - 05.35Uhr13.0 °C10 °C83.2 %4.4 km/hOst-NO6.5 km/h1019.3 hPa0.0 mm0.0 mm/hwechselhaft
04.06.2023 - 05.40Uhr13.0 °C10 °C84.0 %4.5 km/hOsten6.5 km/h1019.4 hPa0.0 mm0.0 mm/hwechselhaft
04.06.2023 - 05.45Uhr13.0 °C10 °C84.0 %3.9 km/hOsten6.5 km/h1019.5 hPa0.0 mm0.0 mm/hwechselhaft
04.06.2023 - 05.50Uhr12.9 °C10 °C84.0 %7.1 km/hOst-SO9.7 km/h1019.5 hPa0.0 mm0.0 mm/hwechselhaft
04.06.2023 - 05.55Uhr12.9 °C10 °C84.0 %6.9 km/hSüd-SO9.7 km/h1019.5 hPa0.0 mm0.0 mm/hwechselhaft
04.06.2023 - 06.00Uhr12.9 °C10 °C84.0 %5.4 km/hSüd-SO7.9 km/h1019.5 hPa0.0 mm0.0 mm/hwechselhaft
04.06.2023 - 06.05Uhr13.1 °C10 °C83.4 %6.4 km/hSüd-SO9.7 km/h1019.5 hPa0.0 mm0.0 mm/hwechselhaft
04.06.2023 - 06.10Uhr13.2 °C10 °C83.0 %6.4 km/hSüd-SO7.9 km/h1019.6 hPa0.0 mm0.0 mm/hwechselhaft
04.06.2023 - 06.15Uhr13.4 °C11 °C83.0 %6.2 km/hSüden7.9 km/h1019.6 hPa0.0 mm0.0 mm/hwechselhaft
04.06.2023 - 06.20Uhr13.4 °C11 °C83.0 %4.1 km/hSüden7.9 km/h1019.6 hPa0.0 mm0.0 mm/hwechselhaft
04.06.2023 - 06.25Uhr13.4 °C11 °C83.0 %3.5 km/hSüden6.5 km/h1019.6 hPa0.0 mm0.0 mm/hwechselhaft
04.06.2023 - 06.30Uhr13.6 °C11 °C82.9 %4.0 km/hSüden6.5 km/h1019.7 hPa0.0 mm0.0 mm/hwechselhaft
04.06.2023 - 06.35Uhr13.8 °C11 °C82.0 %3.7 km/hSüden6.5 km/h1019.8 hPa0.0 mm0.0 mm/hwechselhaft
04.06.2023 - 06.40Uhr14.0 °C11 °C82.0 %2.3 km/hSüden6.5 km/h1019.8 hPa0.0 mm0.0 mm/hwechselhaft
04.06.2023 - 06.45Uhr14.2 °C11 °C81.2 %0.4 km/hSüden3.2 km/h1019.8 hPa0.0 mm0.0 mm/hwechselhaft
04.06.2023 - 06.50Uhr14.3 °C11 °C81.0 %0.0 km/hSüden0.0 km/h1019.8 hPa0.0 mm0.0 mm/hwechselhaft
04.06.2023 - 06.55Uhr14.4 °C11 °C81.0 %0.0 km/hSüden0.0 km/h1019.9 hPa0.0 mm0.0 mm/hwechselhaft
04.06.2023 - 07.00Uhr14.6 °C12 °C81.4 %0.0 km/hSüden0.0 km/h1019.9 hPa0.0 mm0.0 mm/hwechselhaft
04.06.2023 - 07.05Uhr14.7 °C12 °C82.3 %0.0 km/hSüden0.0 km/h1019.9 hPa0.0 mm0.0 mm/hwechselhaft
04.06.2023 - 07.10Uhr14.8 °C12 °C82.0 %1.5 km/hSüden3.2 km/h1019.9 hPa0.0 mm0.0 mm/hwechselhaft
04.06.2023 - 07.15Uhr14.9 °C12 °C81.1 %1.3 km/hSüden3.2 km/h1019.9 hPa0.0 mm0.0 mm/hwechselhaft
04.06.2023 - 07.20Uhr15.0 °C11 °C79.3 %0.0 km/hSüden0.0 km/h1020.0 hPa0.0 mm0.0 mm/hwechselhaft
04.06.2023 - 07.25Uhr15.1 °C11 °C78.4 %0.0 km/hSüden1.4 km/h1020.0 hPa0.0 mm0.0 mm/hwechselhaft
04.06.2023 - 07.30Uhr15.2 °C12 °C79.4 %0.0 km/hSüden0.0 km/h1020.1 hPa0.0 mm0.0 mm/hwechselhaft
04.06.2023 - 07.35Uhr15.3 °C12 °C78.2 %0.0 km/hSüden0.0 km/h1020.2 hPa0.0 mm0.0 mm/hwechselhaft
04.06.2023 - 07.40Uhr15.5 °C12 °C77.5 %0.5 km/hSüden3.2 km/h1020.2 hPa0.0 mm0.0 mm/hwechselhaft
04.06.2023 - 07.45Uhr15.6 °C12 °C77.2 %1.6 km/hSüden3.2 km/h1020.2 hPa0.0 mm0.0 mm/hwechselhaft
04.06.2023 - 07.50Uhr15.7 °C12 °C76.4 %3.1 km/hSüden7.9 km/h1020.2 hPa0.0 mm0.0 mm/hwechselhaft
04.06.2023 - 07.55Uhr15.8 °C12 °C76.4 %3.7 km/hNord-NW6.5 km/h1020.2 hPa0.0 mm0.0 mm/hwechselhaft
04.06.2023 - 08.00Uhr15.9 °C12 °C77.2 %4.7 km/hNord-NW7.9 km/h1020.1 hPa0.0 mm0.0 mm/hwechselhaft
04.06.2023 - 08.05Uhr16.2 °C12 °C76.9 %3.6 km/hNord-NW6.5 km/h1020.2 hPa0.0 mm0.0 mm/hwechselhaft
04.06.2023 - 08.10Uhr16.5 °C12 °C75.0 %2.7 km/hNorden4.7 km/h1020.2 hPa0.0 mm0.0 mm/hwechselhaft
04.06.2023 - 08.15Uhr16.7 °C12 °C73.4 %2.7 km/hNord-NW6.5 km/h1020.2 hPa0.0 mm0.0 mm/hwechselhaft
04.06.2023 - 08.20Uhr16.8 °C12 °C72.8 %4.6 km/hNorden7.9 km/h1020.2 hPa0.0 mm0.0 mm/hwechselhaft
04.06.2023 - 08.25Uhr17.0 °C12 °C71.8 %4.2 km/hNorden7.9 km/h1020.3 hPa0.0 mm0.0 mm/hwechselhaft
04.06.2023 - 08.30Uhr17.1 °C12 °C71.6 %4.4 km/hNorden7.9 km/h1020.4 hPa0.0 mm0.0 mm/hwechselhaft
04.06.2023 - 08.35Uhr17.3 °C12 °C70.7 %3.4 km/hNorden4.7 km/h1020.4 hPa0.0 mm0.0 mm/hwechselhaft
04.06.2023 - 08.40Uhr17.6 °C12 °C70.3 %4.8 km/hNorden7.9 km/h1020.4 hPa0.0 mm0.0 mm/hwechselhaft
04.06.2023 - 08.45Uhr17.6 °C12 °C70.9 %5.1 km/hNorden7.9 km/h1020.4 hPa0.0 mm0.0 mm/hwechselhaft
04.06.2023 - 08.50Uhr17.5 °C12 °C69.9 %4.8 km/hNordwesten7.9 km/h1020.5 hPa0.0 mm0.0 mm/hwechselhaft
04.06.2023 - 08.55Uhr17.6 °C12 °C70.0 %2.1 km/hNordwesten6.5 km/h1020.5 hPa0.0 mm0.0 mm/hwechselhaft
04.06.2023 - 09.00Uhr17.8 °C12 °C70.1 %3.4 km/hNordwesten7.9 km/h1020.7 hPa0.0 mm0.0 mm/hwechselhaft
04.06.2023 - 09.05Uhr17.9 °C12 °C69.5 %4.9 km/hNordwesten9.7 km/h1020.6 hPa0.0 mm0.0 mm/hwechselhaft
04.06.2023 - 09.10Uhr17.9 °C12 °C69.6 %4.5 km/hNordwesten7.9 km/h1020.6 hPa0.0 mm0.0 mm/hwechselhaft
04.06.2023 - 09.15Uhr17.9 °C12 °C69.0 %5.8 km/hNordwesten9.7 km/h1020.5 hPa0.0 mm0.0 mm/hwechselhaft
04.06.2023 - 09.20Uhr17.7 °C12 °C69.0 %5.2 km/hNord-NW9.7 km/h1020.5 hPa0.0 mm0.0 mm/hwechselhaft
04.06.2023 - 09.25Uhr17.8 °C12 °C70.1 %2.8 km/hNordwesten6.5 km/h1020.6 hPa0.0 mm0.0 mm/hwechselhaft
04.06.2023 - 09.30Uhr18.1 °C12 °C69.9 %3.2 km/hNordwesten6.5 km/h1020.5 hPa0.0 mm0.0 mm/hwechselhaft
04.06.2023 - 09.35Uhr18.3 °C13 °C69.4 %5.0 km/hNord-NW9.7 km/h1020.5 hPa0.0 mm0.0 mm/hwechselhaft
04.06.2023 - 09.40Uhr18.3 °C13 °C69.2 %4.9 km/hNordwesten11.2 km/h1020.5 hPa0.0 mm0.0 mm/hwechselhaft
04.06.2023 - 09.45Uhr18.4 °C13 °C69.7 %5.7 km/hNordwesten11.2 km/h1020.5 hPa0.0 mm0.0 mm/hwechselhaft
04.06.2023 - 09.50Uhr18.4 °C13 °C69.2 %4.4 km/hWest-NW7.9 km/h1020.5 hPa0.0 mm0.0 mm/hwechselhaft
04.06.2023 - 09.55Uhr18.4 °C12 °C68.0 %5.5 km/hNordwesten7.9 km/h1020.6 hPa0.0 mm0.0 mm/hwechselhaft
04.06.2023 - 10.00Uhr18.5 °C12 °C67.3 %4.1 km/hWest-NW7.9 km/h1020.5 hPa0.0 mm0.0 mm/hwechselhaft
04.06.2023 - 10.05Uhr18.6 °C12 °C67.4 %4.7 km/hNordwesten7.9 km/h1020.5 hPa0.0 mm0.0 mm/hwechselhaft
04.06.2023 - 10.10Uhr18.7 °C13 °C67.9 %4.5 km/hNordwesten7.9 km/h1020.4 hPa0.0 mm0.0 mm/hwechselhaft
04.06.2023 - 10.15Uhr18.9 °C13 °C67.3 %3.6 km/hNordwesten7.9 km/h1020.4 hPa0.0 mm0.0 mm/hwechselhaft
04.06.2023 - 10.20Uhr18.9 °C13 °C67.0 %4.5 km/hNordwesten7.9 km/h1020.4 hPa0.0 mm0.0 mm/hwechselhaft
04.06.2023 - 10.25Uhr18.8 °C13 °C68.3 %3.9 km/hNordwesten7.9 km/h1020.4 hPa0.0 mm0.0 mm/hwechselhaft
04.06.2023 - 10.30Uhr19.1 °C13 °C68.3 %3.4 km/hNordwesten6.5 km/h1020.3 hPa0.0 mm0.0 mm/hwechselhaft
04.06.2023 - 10.35Uhr19.3 °C13 °C67.0 %4.3 km/hNordwesten7.9 km/h1020.3 hPa0.0 mm0.0 mm/hwechselhaft
04.06.2023 - 10.40Uhr19.4 °C13 °C66.5 %4.0 km/hNord-NW9.7 km/h1020.4 hPa0.0 mm0.0 mm/hwechselhaft
04.06.2023 - 10.45Uhr19.6 °C13 °C65.2 %3.1 km/hNord-NW7.9 km/h1020.4 hPa0.0 mm0.0 mm/hwechselhaft
04.06.2023 - 10.50Uhr19.8 °C13 °C65.4 %1.8 km/hNord-NW6.5 km/h1020.4 hPa0.0 mm0.0 mm/hwechselhaft
04.06.2023 - 10.55Uhr20.2 °C13 °C64.9 %2.9 km/hNordwesten7.9 km/h1020.4 hPa0.0 mm0.0 mm/hwechselhaft
04.06.2023 - 11.00Uhr20.3 °C13 °C64.0 %4.6 km/hNordwesten11.2 km/h1020.3 hPa0.0 mm0.0 mm/hwechselhaft
04.06.2023 - 11.05Uhr20.5 °C14 °C64.8 %4.9 km/hWest-NW11.2 km/h1020.3 hPa0.0 mm0.0 mm/hwechselhaft
04.06.2023 - 11.10Uhr20.7 °C13 °C61.0 %0.9 km/hNordwesten4.7 km/h1020.4 hPa0.0 mm0.0 mm/hwechselhaft
04.06.2023 - 11.15Uhr20.8 °C13 °C61.1 %3.4 km/hNordwesten7.9 km/h1020.3 hPa0.0 mm0.0 mm/hwechselhaft
04.06.2023 - 11.20Uhr20.9 °C13 °C60.3 %3.4 km/hNord-NW6.5 km/h1020.4 hPa0.0 mm0.0 mm/hwechselhaft
04.06.2023 - 11.25Uhr21.1 °C13 °C60.5 %4.0 km/hNordwesten7.9 km/h1020.4 hPa0.0 mm0.0 mm/hwechselhaft
04.06.2023 - 11.30Uhr21.4 °C13 °C59.0 %3.5 km/hNordwesten11.2 km/h1020.3 hPa0.0 mm0.0 mm/hwechselhaft
04.06.2023 - 11.35Uhr21.6 °C13 °C58.6 %3.3 km/hNord-NW7.9 km/h1020.2 hPa0.0 mm0.0 mm/hwechselhaft
04.06.2023 - 11.40Uhr21.7 °C13 °C57.9 %2.2 km/hNordwesten9.7 km/h1020.2 hPa0.0 mm0.0 mm/hwechselhaft
04.06.2023 - 11.45Uhr22.0 °C14 °C58.7 %5.0 km/hNorden9.7 km/h1020.1 hPa0.0 mm0.0 mm/hwechselhaft
04.06.2023 - 11.50Uhr22.2 °C14 °C58.1 %3.7 km/hNord-NO9.7 km/h1020.1 hPa0.0 mm0.0 mm/hwechselhaft
04.06.2023 - 11.55Uhr22.6 °C14 °C58.8 %4.6 km/hNord-NW9.7 km/h1020.1 hPa0.0 mm0.0 mm/hwechselhaft
04.06.2023 - 12.00Uhr22.8 °C14 °C57.7 %7.5 km/hNord-NW13.0 km/h1020.0 hPa0.0 mm0.0 mm/hwechselhaft
04.06.2023 - 12.05Uhr22.9 °C14 °C56.0 %6.5 km/hWest-NW13.0 km/h1020.0 hPa0.0 mm0.0 mm/hwechselhaft
04.06.2023 - 12.10Uhr22.8 °C13 °C53.5 %6.4 km/hNordwesten14.4 km/h1020.0 hPa0.0 mm0.0 mm/hwechselhaft
04.06.2023 - 12.15Uhr22.8 °C14 °C56.0 %6.5 km/hNordwesten14.4 km/h1020.0 hPa0.0 mm0.0 mm/hwechselhaft
04.06.2023 - 12.20Uhr22.8 °C13 °C54.3 %5.7 km/hNordwesten11.2 km/h1020.0 hPa0.0 mm0.0 mm/hwechselhaft
04.06.2023 - 12.25Uhr22.8 °C13 °C55.2 %6.3 km/hNord-NW11.2 km/h1020.0 hPa0.0 mm0.0 mm/hwechselhaft
04.06.2023 - 12.30Uhr23.0 °C14 °C56.3 %8.1 km/hNordwesten14.4 km/h1019.9 hPa0.0 mm0.0 mm/hwechselhaft
04.06.2023 - 12.35Uhr23.2 °C13 °C53.8 %6.9 km/hNordwesten13.0 km/h1020.0 hPa0.0 mm0.0 mm/hwechselhaft
04.06.2023 - 12.40Uhr23.2 °C13 °C52.6 %4.3 km/hNordwesten7.9 km/h1019.9 hPa0.0 mm0.0 mm/hwechselhaft
04.06.2023 - 12.45Uhr23.4 °C13 °C50.8 %5.1 km/hNorden13.0 km/h1020.0 hPa0.0 mm0.0 mm/hwechselhaft
04.06.2023 - 12.50Uhr23.5 °C13 °C50.8 %7.3 km/hNordwesten14.4 km/h1020.0 hPa0.0 mm0.0 mm/hwechselhaft
04.06.2023 - 12.55Uhr23.4 °C13 °C50.9 %7.5 km/hWest-NW14.4 km/h1020.0 hPa0.0 mm0.0 mm/hwechselhaft
04.06.2023 - 13.00Uhr23.3 °C12 °C49.1 %6.5 km/hNord-NW13.0 km/h1019.9 hPa0.0 mm0.0 mm/hwechselhaft
04.06.2023 - 13.05Uhr23.2 °C12 °C50.0 %6.7 km/hNord-NW13.0 km/h1020.0 hPa0.0 mm0.0 mm/hwechselhaft
04.06.2023 - 13.10Uhr23.3 °C12 °C49.6 %5.2 km/hWest-NW13.0 km/h1020.0 hPa0.0 mm0.0 mm/hwechselhaft
04.06.2023 - 13.15Uhr23.4 °C12 °C48.5 %5.4 km/hNordwesten13.0 km/h1019.9 hPa0.0 mm0.0 mm/hwechselhaft
04.06.2023 - 13.20Uhr23.5 °C12 °C49.5 %5.7 km/hWest-NW11.2 km/h1019.9 hPa0.0 mm0.0 mm/hwechselhaft
04.06.2023 - 13.25Uhr23.7 °C12 °C48.4 %5.4 km/hNordwesten13.0 km/h1019.9 hPa0.0 mm0.0 mm/hwechselhaft
04.06.2023 - 13.30Uhr23.7 °C11 °C46.1 %3.7 km/hNordwesten7.9 km/h1019.9 hPa0.0 mm0.0 mm/hwechselhaft
04.06.2023 - 13.35Uhr23.7 °C11 °C45.2 %4.2 km/hNordwesten11.2 km/h1019.9 hPa0.0 mm0.0 mm/hwechselhaft
04.06.2023 - 13.40Uhr23.6 °C12 °C46.9 %4.4 km/hNordwesten7.9 km/h1019.9 hPa0.0 mm0.0 mm/hwechselhaft
04.06.2023 - 13.45Uhr23.5 °C11 °C46.4 %3.4 km/hNord-NW6.5 km/h1019.9 hPa0.0 mm0.0 mm/hwechselhaft
04.06.2023 - 13.50Uhr23.3 °C11 °C45.4 %2.8 km/hNord-NW6.5 km/h1019.9 hPa0.0 mm0.0 mm/hwechselhaft
04.06.2023 - 13.55Uhr23.4 °C11 °C46.0 %3.9 km/hNord-NW7.9 km/h1019.9 hPa0.0 mm0.0 mm/hwechselhaft
04.06.2023 - 14.00Uhr23.5 °C11 °C46.9 %3.6 km/hNord-NW11.2 km/h1019.8 hPa0.0 mm0.0 mm/hwechselhaft
04.06.2023 - 14.05Uhr23.7 °C12 °C46.7 %5.0 km/hNord-NW13.0 km/h1019.7 hPa0.0 mm0.0 mm/hwechselhaft
04.06.2023 - 14.10Uhr23.8 °C12 °C47.3 %5.7 km/hNord-NW11.2 km/h1019.7 hPa0.0 mm0.0 mm/hwechselhaft
04.06.2023 - 14.15Uhr24.1 °C12 °C46.9 %6.8 km/hNordwesten11.2 km/h1019.7 hPa0.0 mm0.0 mm/hwechselhaft
04.06.2023 - 14.20Uhr24.0 °C12 °C46.1 %4.6 km/hNordwesten9.7 km/h1019.7 hPa0.0 mm0.0 mm/hwechselhaft
04.06.2023 - 14.25Uhr23.9 °C12 °C46.6 %6.0 km/hNordwesten9.7 km/h1019.7 hPa0.0 mm0.0 mm/hwechselhaft
04.06.2023 - 14.30Uhr24.2 °C12 °C46.8 %5.8 km/hWest-NW13.0 km/h1019.7 hPa0.0 mm0.0 mm/hwechselhaft
04.06.2023 - 14.35Uhr24.5 °C12 °C44.6 %5.9 km/hWest-NW13.0 km/h1019.7 hPa0.0 mm0.0 mm/hwechselhaft
04.06.2023 - 14.40Uhr24.5 °C11 °C43.5 %4.2 km/hNordwesten9.7 km/h1019.8 hPa0.0 mm0.0 mm/hwechselhaft
04.06.2023 - 14.45Uhr24.4 °C12 °C44.9 %3.6 km/hNordwesten7.9 km/h1019.7 hPa0.0 mm0.0 mm/hwechselhaft
04.06.2023 - 14.50Uhr24.5 °C12 °C44.6 %4.7 km/hNordwesten11.2 km/h1019.7 hPa0.0 mm0.0 mm/hwechselhaft
04.06.2023 - 14.55Uhr24.6 °C12 °C44.3 %7.3 km/hNord-NW17.6 km/h1019.7 hPa0.0 mm0.0 mm/hwechselhaft
04.06.2023 - 15.00Uhr24.4 °C12 °C44.7 %6.1 km/hNord-NW9.7 km/h1019.7 hPa0.0 mm0.0 mm/hwechselhaft
04.06.2023 - 15.05Uhr24.3 °C12 °C45.5 %5.4 km/hNord-NW7.9 km/h1019.7 hPa0.0 mm0.0 mm/hwechselhaft
04.06.2023 - 15.10Uhr24.4 °C12 °C45.0 %6.8 km/hNord-NW13.0 km/h1019.6 hPa0.0 mm0.0 mm/hwechselhaft
04.06.2023 - 15.15Uhr24.3 °C12 °C44.8 %6.4 km/hNord-NW13.0 km/h1019.6 hPa0.0 mm0.0 mm/hwechselhaft
04.06.2023 - 15.20Uhr24.2 °C11 °C44.8 %6.2 km/hNordwesten11.2 km/h1019.7 hPa0.0 mm0.0 mm/hwechselhaft
04.06.2023 - 15.25Uhr24.3 °C12 °C46.1 %8.1 km/hNordwesten14.4 km/h1019.7 hPa0.0 mm0.0 mm/hwechselhaft
04.06.2023 - 15.30Uhr24.6 °C12 °C46.4 %8.3 km/hNorden14.4 km/h1019.7 hPa0.0 mm0.0 mm/hwechselhaft
04.06.2023 - 15.35Uhr24.7 °C12 °C45.8 %8.0 km/hNordwesten16.2 km/h1019.7 hPa0.0 mm0.0 mm/hwechselhaft
04.06.2023 - 15.40Uhr24.7 °C12 °C44.8 %9.2 km/hNordwesten16.2 km/h1019.7 hPa0.0 mm0.0 mm/hsonnig
04.06.2023 - 15.45Uhr24.6 °C12 °C46.4 %9.1 km/hNord-NW14.4 km/h1019.7 hPa0.0 mm0.0 mm/hsonnig
04.06.2023 - 15.50Uhr24.6 °C13 °C48.4 %12.4 km/hNorden16.2 km/h1019.7 hPa0.0 mm0.0 mm/hsonnig
04.06.2023 - 15.55Uhr24.6 °C12 °C46.5 %13.6 km/hNorden22.7 km/h1019.6 hPa0.0 mm0.0 mm/hsonnig
04.06.2023 - 16.00Uhr24.6 °C12 °C44.6 %15.1 km/hNorden24.1 km/h1019.5 hPa0.0 mm0.0 mm/hsonnig
04.06.2023 - 16.05Uhr24.8 °C11 °C43.3 %13.9 km/hNord-NW20.9 km/h1019.5 hPa0.0 mm0.0 mm/hsonnig
04.06.2023 - 16.10Uhr24.8 °C11 °C42.9 %12.9 km/hNorden19.4 km/h1019.5 hPa0.0 mm0.0 mm/hsonnig
04.06.2023 - 16.15Uhr24.8 °C12 °C43.5 %13.9 km/hNord-NW20.9 km/h1019.4 hPa0.0 mm0.0 mm/hsonnig
04.06.2023 - 16.20Uhr24.8 °C12 °C43.5 %12.4 km/hNorden19.4 km/h1019.4 hPa0.0 mm0.0 mm/hsonnig
04.06.2023 - 16.25Uhr24.9 °C13 °C46.4 %13.8 km/hNorden20.9 km/h1019.3 hPa0.0 mm0.0 mm/hsonnig
04.06.2023 - 16.30Uhr24.9 °C12 °C43.1 %12.0 km/hNorden19.4 km/h1019.2 hPa0.0 mm0.0 mm/hsonnig
04.06.2023 - 16.35Uhr25.1 °C11 °C41.6 %13.5 km/hNorden19.4 km/h1019.2 hPa0.0 mm0.0 mm/hsonnig
04.06.2023 - 16.40Uhr25.0 °C11 °C42.7 %11.8 km/hNorden17.6 km/h1019.2 hPa0.0 mm0.0 mm/hwechselhaft
04.06.2023 - 16.45Uhr25.2 °C13 °C46.0 %11.7 km/hNorden19.4 km/h1019.1 hPa0.0 mm0.0 mm/hwechselhaft
04.06.2023 - 16.50Uhr25.2 °C12 °C43.9 %12.7 km/hNorden19.4 km/h1019.1 hPa0.0 mm0.0 mm/hwechselhaft
04.06.2023 - 16.55Uhr25.2 °C12 °C43.8 %12.4 km/hNorden19.4 km/h1019.1 hPa0.0 mm0.0 mm/hwechselhaft
04.06.2023 - 17.00Uhr25.1 °C12 °C42.5 %13.4 km/hNorden20.9 km/h1019.1 hPa0.0 mm0.0 mm/hwechselhaft
04.06.2023 - 17.05Uhr24.9 °C11 °C42.6 %13.6 km/hNorden17.6 km/h1019.1 hPa0.0 mm0.0 mm/hwechselhaft
04.06.2023 - 17.10Uhr25.0 °C12 °C45.1 %13.5 km/hNorden22.7 km/h1019.1 hPa0.0 mm0.0 mm/hwechselhaft
04.06.2023 - 17.15Uhr25.0 °C12 °C43.1 %11.4 km/hNorden19.4 km/h1019.1 hPa0.0 mm0.0 mm/hwechselhaft
04.06.2023 - 17.20Uhr25.1 °C12 °C43.1 %12.3 km/hNorden17.6 km/h1019.1 hPa0.0 mm0.0 mm/hwechselhaft
04.06.2023 - 17.25Uhr25.0 °C12 °C43.4 %12.8 km/hNorden20.9 km/h1019.1 hPa0.0 mm0.0 mm/hwechselhaft
04.06.2023 - 17.30Uhr24.9 °C12 °C44.1 %12.2 km/hNorden19.4 km/h1019.1 hPa0.0 mm0.0 mm/hwechselhaft
04.06.2023 - 17.35Uhr24.8 °C12 °C44.4 %12.7 km/hNord-NO20.9 km/h1019.1 hPa0.0 mm0.0 mm/hwechselhaft
04.06.2023 - 17.40Uhr24.6 °C12 °C46.0 %9.2 km/hNord-NO17.6 km/h1019.1 hPa0.0 mm0.0 mm/hwechselhaft
04.06.2023 - 17.45Uhr24.5 °C13 °C47.6 %8.0 km/hNord-NO16.2 km/h1019.1 hPa0.0 mm0.0 mm/hwechselhaft
04.06.2023 - 17.50Uhr24.4 °C13 °C47.9 %9.5 km/hNord-NO17.6 km/h1019.0 hPa0.0 mm0.0 mm/hwechselhaft
04.06.2023 - 17.55Uhr24.4 °C13 °C48.7 %7.4 km/hNordosten19.4 km/h1019.0 hPa0.0 mm0.0 mm/hwechselhaft
04.06.2023 - 18.00Uhr24.3 °C13 °C48.3 %6.1 km/hNordosten13.0 km/h1019.0 hPa0.0 mm0.0 mm/hwechselhaft
04.06.2023 - 18.05Uhr24.2 °C12 °C47.4 %6.7 km/hNord-NO13.0 km/h1019.0 hPa0.0 mm0.0 mm/hwechselhaft
04.06.2023 - 18.10Uhr24.1 °C12 °C46.8 %7.4 km/hNord-NO16.2 km/h1018.9 hPa0.0 mm0.0 mm/hwechselhaft
04.06.2023 - 18.15Uhr24.2 °C12 °C47.1 %8.0 km/hNord-NO16.2 km/h1019.0 hPa0.0 mm0.0 mm/hwechselhaft
04.06.2023 - 18.20Uhr24.2 °C12 °C47.4 %7.6 km/hNord-NO16.2 km/h1018.9 hPa0.0 mm0.0 mm/hwechselhaft
04.06.2023 - 18.25Uhr24.3 °C12 °C47.4 %9.0 km/hNord-NO22.7 km/h1018.9 hPa0.0 mm0.0 mm/hwechselhaft
04.06.2023 - 18.30Uhr24.3 °C13 °C48.3 %10.8 km/hNord-NO20.9 km/h1019.0 hPa0.0 mm0.0 mm/hwechselhaft
04.06.2023 - 18.35Uhr24.0 °C12 °C48.5 %11.7 km/hNord-NO20.9 km/h1018.9 hPa0.0 mm0.0 mm/hwechselhaft
04.06.2023 - 18.40Uhr23.6 °C13 °C51.2 %10.8 km/hNordosten24.1 km/h1019.0 hPa0.0 mm0.0 mm/hwechselhaft
04.06.2023 - 18.45Uhr23.3 °C13 °C53.4 %7.8 km/hNordosten17.6 km/h1019.0 hPa0.0 mm0.0 mm/hwechselhaft
04.06.2023 - 18.50Uhr23.0 °C14 °C55.2 %7.1 km/hOst-NO16.2 km/h1019.0 hPa0.0 mm0.0 mm/hwechselhaft
04.06.2023 - 18.55Uhr22.9 °C14 °C55.5 %7.3 km/hNordosten17.6 km/h1019.1 hPa0.0 mm0.0 mm/hwechselhaft
04.06.2023 - 19.00Uhr22.8 °C13 °C53.7 %7.6 km/hOst-NO14.4 km/h1019.1 hPa0.0 mm0.0 mm/hwechselhaft
04.06.2023 - 19.05Uhr22.8 °C13 °C53.8 %6.8 km/hOst-NO16.2 km/h1019.0 hPa0.0 mm0.0 mm/hwechselhaft
04.06.2023 - 19.10Uhr22.8 °C13 °C55.1 %4.8 km/hNordosten11.2 km/h1019.1 hPa0.0 mm0.0 mm/hwechselhaft
04.06.2023 - 19.15Uhr22.7 °C13 °C55.9 %6.0 km/hNordosten13.0 km/h1019.1 hPa0.0 mm0.0 mm/hwechselhaft
04.06.2023 - 19.20Uhr22.5 °C13 °C56.2 %3.9 km/hNordosten13.0 km/h1019.1 hPa0.0 mm0.0 mm/hwechselhaft
04.06.2023 - 19.25Uhr2.1 km/hOst-NO3.2 km/h0.0 mm0.0 mm/h